sensor_id;sensor_type;location;lat;lon;timestamp;P1;durP1;ratioP1;P2;durP2;ratioP2
52798;SDS011;38667;42.872;74.622;2023-03-14T00:02:06;30.27;;;17.43;;
52798;SDS011;38667;42.872;74.622;2023-03-14T00:04:33;33.67;;;17.17;;
52798;SDS011;38667;42.872;74.622;2023-03-14T00:06:59;29.33;;;17.27;;
52798;SDS011;38667;42.872;74.622;2023-03-14T00:09:27;35.93;;;17.30;;
52798;SDS011;38667;42.872;74.622;2023-03-14T00:11:53;34.70;;;17.60;;
52798;SDS011;38667;42.872;74.622;2023-03-14T00:14:20;32.67;;;17.47;;
52798;SDS011;38667;42.872;74.622;2023-03-14T00:16:46;38.23;;;19.70;;
52798;SDS011;38667;42.872;74.622;2023-03-14T00:19:12;47.37;;;20.03;;
52798;SDS011;38667;42.872;74.622;2023-03-14T00:21:39;42.47;;;21.08;;
52798;SDS011;38667;42.872;74.622;2023-03-14T00:24:06;47.73;;;19.73;;
52798;SDS011;38667;42.872;74.622;2023-03-14T00:26:34;40.40;;;20.33;;
52798;SDS011;38667;42.872;74.622;2023-03-14T00:29:01;43.87;;;20.00;;
52798;SDS011;38667;42.872;74.622;2023-03-14T00:31:27;43.70;;;18.93;;
52798;SDS011;38667;42.872;74.622;2023-03-14T00:33:53;53.13;;;20.87;;
52798;SDS011;38667;42.872;74.622;2023-03-14T00:36:20;41.00;;;19.43;;
52798;SDS011;38667;42.872;74.622;2023-03-14T00:38:47;44.53;;;18.83;;
52798;SDS011;38667;42.872;74.622;2023-03-14T00:41:15;46.80;;;20.87;;
52798;SDS011;38667;42.872;74.622;2023-03-14T00:43:44;44.93;;;20.00;;
52798;SDS011;38667;42.872;74.622;2023-03-14T00:46:11;31.77;;;17.20;;
52798;SDS011;38667;42.872;74.622;2023-03-14T00:48:38;41.03;;;18.87;;
52798;SDS011;38667;42.872;74.622;2023-03-14T00:51:05;34.50;;;17.27;;
52798;SDS011;38667;42.872;74.622;2023-03-14T00:53:35;32.73;;;18.60;;
52798;SDS011;38667;42.872;74.622;2023-03-14T00:56:03;51.23;;;20.20;;
52798;SDS011;38667;42.872;74.622;2023-03-14T00:58:30;49.17;;;21.80;;
52798;SDS011;38667;42.872;74.622;2023-03-14T01:00:58;64.87;;;22.23;;
52798;SDS011;38667;42.872;74.622;2023-03-14T01:03:24;515.30;;;43.87;;
52798;SDS011;38667;42.872;74.622;2023-03-14T01:05:50;79.10;;;22.53;;
52798;SDS011;38667;42.872;74.622;2023-03-14T01:08:17;59.03;;;22.00;;
52798;SDS011;38667;42.872;74.622;2023-03-14T01:10:43;253.20;;;31.67;;
52798;SDS011;38667;42.872;74.622;2023-03-14T01:13:09;108.50;;;32.10;;
52798;SDS011;38667;42.872;74.622;2023-03-14T01:15:36;221.75;;;63.10;;
52798;SDS011;38667;42.872;74.622;2023-03-14T01:18:04;373.10;;;112.90;;
52798;SDS011;38667;42.872;74.622;2023-03-14T01:20:31;370.93;;;108.47;;
52798;SDS011;38667;42.872;74.622;2023-03-14T01:22:57;275.70;;;90.33;;
52798;SDS011;38667;42.872;74.622;2023-03-14T01:25:23;291.00;;;93.37;;
52798;SDS011;38667;42.872;74.622;2023-03-14T01:27:50;211.07;;;72.50;;
52798;SDS011;38667;42.872;74.622;2023-03-14T01:30:16;194.17;;;67.63;;
52798;SDS011;38667;42.872;74.622;2023-03-14T01:32:42;195.87;;;63.53;;
52798;SDS011;38667;42.872;74.622;2023-03-14T01:35:10;91.40;;;36.03;;
52798;SDS011;38667;42.872;74.622;2023-03-14T01:37:36;107.70;;;35.60;;
52798;SDS011;38667;42.872;74.622;2023-03-14T01:40:03;104.93;;;38.37;;
52798;SDS011;38667;42.872;74.622;2023-03-14T01:42:30;96.43;;;35.63;;
52798;SDS011;38667;42.872;74.622;2023-03-14T01:44:56;116.20;;;38.70;;
52798;SDS011;38667;42.872;74.622;2023-03-14T01:47:24;118.57;;;43.03;;
52798;SDS011;38667;42.872;74.622;2023-03-14T01:49:51;109.97;;;37.97;;
52798;SDS011;38667;42.872;74.622;2023-03-14T01:52:23;126.10;;;40.37;;
52798;SDS011;38667;42.872;74.622;2023-03-14T01:54:52;125.43;;;40.03;;
52798;SDS011;38667;42.872;74.622;2023-03-14T01:57:23;97.20;;;37.60;;
52798;SDS011;38667;42.872;74.622;2023-03-14T01:59:54;115.53;;;37.07;;
52798;SDS011;38667;42.872;74.622;2023-03-14T02:02:23;96.13;;;36.63;;
52798;SDS011;38667;42.872;74.622;2023-03-14T02:04:51;113.00;;;36.60;;
52798;SDS011;38667;42.872;74.622;2023-03-14T02:07:19;88.60;;;33.83;;
52798;SDS011;38667;42.872;74.622;2023-03-14T02:09:49;110.73;;;34.87;;
52798;SDS011;38667;42.872;74.622;2023-03-14T02:12:16;88.37;;;34.80;;
52798;SDS011;38667;42.872;74.622;2023-03-14T02:14:45;94.37;;;34.80;;
52798;SDS011;38667;42.872;74.622;2023-03-14T02:17:11;119.40;;;37.80;;
52798;SDS011;38667;42.872;74.622;2023-03-14T02:19:46;111.57;;;37.83;;
52798;SDS011;38667;42.872;74.622;2023-03-14T02:22:34;103.67;;;33.90;;
52798;SDS011;38667;42.872;74.622;2023-03-14T02:25:04;102.53;;;31.80;;
52798;SDS011;38667;42.872;74.622;2023-03-14T02:27:39;76.55;;;30.23;;
52798;SDS011;38667;42.872;74.622;2023-03-14T02:30:06;81.77;;;30.77;;
52798;SDS011;38667;42.872;74.622;2023-03-14T02:32:36;84.77;;;27.53;;
52798;SDS011;38667;42.872;74.622;2023-03-14T02:35:06;99.53;;;29.07;;
52798;SDS011;38667;42.872;74.622;2023-03-14T02:37:36;74.93;;;26.67;;
52798;SDS011;38667;42.872;74.622;2023-03-14T02:40:05;112.28;;;30.65;;
52798;SDS011;38667;42.872;74.622;2023-03-14T02:42:33;96.38;;;29.10;;
52798;SDS011;38667;42.872;74.622;2023-03-14T02:45:24;77.32;;;28.17;;
52798;SDS011;38667;42.872;74.622;2023-03-14T02:48:08;87.00;;;28.20;;
52798;SDS011;38667;42.872;74.622;2023-03-14T02:50:40;79.00;;;30.15;;
52798;SDS011;38667;42.872;74.622;2023-03-14T02:53:07;101.65;;;33.08;;
52798;SDS011;38667;42.872;74.622;2023-03-14T02:55:33;101.65;;;37.88;;
52798;SDS011;38667;42.872;74.622;2023-03-14T02:58:00;105.05;;;39.95;;
52798;SDS011;38667;42.872;74.622;2023-03-14T03:00:27;113.90;;;44.45;;
52798;SDS011;38667;42.872;74.622;2023-03-14T03:02:54;110.30;;;46.63;;
52798;SDS011;38667;42.872;74.622;2023-03-14T03:05:20;100.18;;;44.33;;
52798;SDS011;38667;42.872;74.622;2023-03-14T03:07:46;99.57;;;40.95;;
52798;SDS011;38667;42.872;74.622;2023-03-14T03:10:13;103.15;;;38.47;;
52798;SDS011;38667;42.872;74.622;2023-03-14T03:12:39;69.40;;;31.55;;
52798;SDS011;38667;42.872;74.622;2023-03-14T03:15:06;60.88;;;28.70;;
52798;SDS011;38667;42.872;74.622;2023-03-14T03:17:34;63.17;;;32.25;;
52798;SDS011;38667;42.872;74.622;2023-03-14T03:20:00;81.43;;;34.20;;
52798;SDS011;38667;42.872;74.622;2023-03-14T03:22:27;67.72;;;34.42;;
52798;SDS011;38667;42.872;74.622;2023-03-14T03:24:54;85.68;;;41.70;;
52798;SDS011;38667;42.872;74.622;2023-03-14T03:27:20;78.20;;;38.10;;
52798;SDS011;38667;42.872;74.622;2023-03-14T03:29:46;88.88;;;40.55;;
52798;SDS011;38667;42.872;74.622;2023-03-14T03:32:13;81.95;;;39.92;;
52798;SDS011;38667;42.872;74.622;2023-03-14T03:34:40;85.57;;;41.50;;
52798;SDS011;38667;42.872;74.622;2023-03-14T03:37:07;79.35;;;41.35;;
52798;SDS011;38667;42.872;74.622;2023-03-14T03:39:33;94.20;;;43.42;;
52798;SDS011;38667;42.872;74.622;2023-03-14T03:42:00;96.47;;;45.65;;
52798;SDS011;38667;42.872;74.622;2023-03-14T03:44:26;94.30;;;44.90;;
52798;SDS011;38667;42.872;74.622;2023-03-14T03:46:52;77.70;;;36.92;;
52798;SDS011;38667;42.872;74.622;2023-03-14T03:49:19;80.03;;;38.00;;
52798;SDS011;38667;42.872;74.622;2023-03-14T03:51:47;78.35;;;36.85;;
52798;SDS011;38667;42.872;74.622;2023-03-14T03:54:13;72.18;;;35.78;;
52798;SDS011;38667;42.872;74.622;2023-03-14T03:56:39;77.47;;;36.20;;
52798;SDS011;38667;42.872;74.622;2023-03-14T03:59:06;64.53;;;30.05;;
52798;SDS011;38667;42.872;74.622;2023-03-14T04:01:32;52.90;;;26.35;;
52798;SDS011;38667;42.872;74.622;2023-03-14T04:03:58;44.92;;;24.83;;
52798;SDS011;38667;42.872;74.622;2023-03-14T04:06:25;41.47;;;21.98;;
52798;SDS011;38667;42.872;74.622;2023-03-14T04:08:54;45.88;;;24.55;;
52798;SDS011;38667;42.872;74.622;2023-03-14T04:11:21;37.42;;;23.42;;
52798;SDS011;38667;42.872;74.622;2023-03-14T04:13:47;48.10;;;26.52;;
52798;SDS011;38667;42.872;74.622;2023-03-14T04:16:14;39.25;;;23.23;;
52798;SDS011;38667;42.872;74.622;2023-03-14T04:18:42;47.08;;;22.38;;
52798;SDS011;38667;42.872;74.622;2023-03-14T04:21:08;44.72;;;22.70;;
52798;SDS011;38667;42.872;74.622;2023-03-14T04:23:35;48.05;;;26.48;;
52798;SDS011;38667;42.872;74.622;2023-03-14T04:26:03;46.10;;;23.60;;
52798;SDS011;38667;42.872;74.622;2023-03-14T04:28:29;46.20;;;24.70;;
52798;SDS011;38667;42.872;74.622;2023-03-14T04:30:56;49.70;;;24.60;;
52798;SDS011;38667;42.872;74.622;2023-03-14T04:33:22;41.63;;;24.83;;
52798;SDS011;38667;42.872;74.622;2023-03-14T04:35:49;47.15;;;25.58;;
52798;SDS011;38667;42.872;74.622;2023-03-14T04:38:18;54.05;;;26.77;;
52798;SDS011;38667;42.872;74.622;2023-03-14T04:40:45;52.50;;;27.05;;
52798;SDS011;38667;42.872;74.622;2023-03-14T04:43:13;46.85;;;25.42;;
52798;SDS011;38667;42.872;74.622;2023-03-14T04:45:41;40.65;;;24.15;;
52798;SDS011;38667;42.872;74.622;2023-03-14T04:48:07;50.20;;;25.55;;
52798;SDS011;38667;42.872;74.622;2023-03-14T04:50:34;42.15;;;23.58;;
52798;SDS011;38667;42.872;74.622;2023-03-14T04:53:00;39.75;;;21.92;;
52798;SDS011;38667;42.872;74.622;2023-03-14T04:55:26;46.50;;;23.20;;
52798;SDS011;38667;42.872;74.622;2023-03-14T04:57:53;46.47;;;22.08;;
52798;SDS011;38667;42.872;74.622;2023-03-14T05:00:20;43.70;;;22.17;;
52798;SDS011;38667;42.872;74.622;2023-03-14T05:02:47;39.30;;;21.98;;
52798;SDS011;38667;42.872;74.622;2023-03-14T05:05:13;38.60;;;21.10;;
52798;SDS011;38667;42.872;74.622;2023-03-14T05:07:39;32.00;;;16.08;;
52798;SDS011;38667;42.872;74.622;2023-03-14T05:10:06;41.08;;;18.23;;
52798;SDS011;38667;42.872;74.622;2023-03-14T05:12:33;46.72;;;21.00;;
52798;SDS011;38667;42.872;74.622;2023-03-14T05:14:59;58.40;;;19.90;;
52798;SDS011;38667;42.872;74.622;2023-03-14T05:17:28;41.30;;;19.45;;
52798;SDS011;38667;42.872;74.622;2023-03-14T05:19:54;29.35;;;18.15;;
52798;SDS011;38667;42.872;74.622;2023-03-14T05:22:20;36.97;;;20.08;;
52798;SDS011;38667;42.872;74.622;2023-03-14T05:24:47;32.22;;;17.95;;
52798;SDS011;38667;42.872;74.622;2023-03-14T05:27:13;45.25;;;19.40;;
52798;SDS011;38667;42.872;74.622;2023-03-14T05:29:39;39.67;;;19.42;;
52798;SDS011;38667;42.872;74.622;2023-03-14T05:32:06;30.42;;;18.40;;
52798;SDS011;38667;42.872;74.622;2023-03-14T05:34:34;46.40;;;18.38;;
52798;SDS011;38667;42.872;74.622;2023-03-14T05:37:00;42.38;;;19.02;;
52798;SDS011;38667;42.872;74.622;2023-03-14T05:39:26;35.10;;;19.25;;
52798;SDS011;38667;42.872;74.622;2023-03-14T05:41:52;49.28;;;21.13;;
52798;SDS011;38667;42.872;74.622;2023-03-14T05:44:19;63.17;;;21.80;;
52798;SDS011;38667;42.872;74.622;2023-03-14T05:46:45;98.68;;;24.25;;
52798;SDS011;38667;42.872;74.622;2023-03-14T05:49:11;87.88;;;24.75;;
52798;SDS011;38667;42.872;74.622;2023-03-14T05:51:40;98.47;;;23.85;;
52798;SDS011;38667;42.872;74.622;2023-03-14T05:54:06;74.47;;;21.73;;
52798;SDS011;38667;42.872;74.622;2023-03-14T05:56:32;75.00;;;21.27;;
52798;SDS011;38667;42.872;74.622;2023-03-14T05:58:59;58.65;;;21.65;;
52798;SDS011;38667;42.872;74.622;2023-03-14T06:01:25;93.95;;;24.77;;
52798;SDS011;38667;42.872;74.622;2023-03-14T06:03:51;78.68;;;22.90;;
52798;SDS011;38667;42.872;74.622;2023-03-14T06:06:18;70.93;;;25.00;;
52798;SDS011;38667;42.872;74.622;2023-03-14T06:08:46;54.75;;;23.83;;
52798;SDS011;38667;42.872;74.622;2023-03-14T06:11:12;60.75;;;28.17;;
52798;SDS011;38667;42.872;74.622;2023-03-14T06:13:38;60.97;;;25.75;;
52798;SDS011;38667;42.872;74.622;2023-03-14T06:16:05;55.72;;;24.20;;
52798;SDS011;38667;42.872;74.622;2023-03-14T06:18:32;48.53;;;22.95;;
52798;SDS011;38667;42.872;74.622;2023-03-14T06:20:58;64.38;;;21.85;;
52798;SDS011;38667;42.872;74.622;2023-03-14T06:23:24;46.90;;;22.38;;
52798;SDS011;38667;42.872;74.622;2023-03-14T06:25:52;52.42;;;23.92;;
52798;SDS011;38667;42.872;74.622;2023-03-14T06:28:19;58.85;;;23.23;;
52798;SDS011;38667;42.872;74.622;2023-03-14T06:30:45;64.10;;;23.75;;
52798;SDS011;38667;42.872;74.622;2023-03-14T06:33:11;63.47;;;26.95;;
52798;SDS011;38667;42.872;74.622;2023-03-14T06:35:37;57.08;;;23.15;;
52798;SDS011;38667;42.872;74.622;2023-03-14T06:38:04;61.45;;;22.80;;
52798;SDS011;38667;42.872;74.622;2023-03-14T06:40:30;48.90;;;22.80;;
52798;SDS011;38667;42.872;74.622;2023-03-14T06:42:58;68.18;;;24.23;;
52798;SDS011;38667;42.872;74.622;2023-03-14T06:45:24;48.67;;;23.67;;
52798;SDS011;38667;42.872;74.622;2023-03-14T06:47:50;56.45;;;23.35;;
52798;SDS011;38667;42.872;74.622;2023-03-14T06:50:17;47.20;;;23.20;;
52798;SDS011;38667;42.872;74.622;2023-03-14T06:52:43;60.33;;;22.48;;
52798;SDS011;38667;42.872;74.622;2023-03-14T06:55:10;51.15;;;20.95;;
52798;SDS011;38667;42.872;74.622;2023-03-14T06:57:36;59.03;;;24.20;;
52798;SDS011;38667;42.872;74.622;2023-03-14T07:00:04;57.90;;;23.10;;
52798;SDS011;38667;42.872;74.622;2023-03-14T07:02:31;57.20;;;24.10;;
52798;SDS011;38667;42.872;74.622;2023-03-14T07:04:58;50.55;;;21.30;;
52798;SDS011;38667;42.872;74.622;2023-03-14T07:07:24;47.53;;;21.25;;
52798;SDS011;38667;42.872;74.622;2023-03-14T07:09:50;46.30;;;20.90;;
52798;SDS011;38667;42.872;74.622;2023-03-14T07:12:17;47.95;;;22.92;;
52798;SDS011;38667;42.872;74.622;2023-03-14T07:14:43;47.72;;;22.13;;
52798;SDS011;38667;42.872;74.622;2023-03-14T07:17:11;42.88;;;21.73;;
52798;SDS011;38667;42.872;74.622;2023-03-14T07:19:37;51.08;;;22.45;;
52798;SDS011;38667;42.872;74.622;2023-03-14T07:22:04;46.03;;;21.60;;
52798;SDS011;38667;42.872;74.622;2023-03-14T07:24:30;49.05;;;21.08;;
52798;SDS011;38667;42.872;74.622;2023-03-14T07:26:56;65.63;;;24.10;;
52798;SDS011;38667;42.872;74.622;2023-03-14T07:29:23;43.90;;;21.58;;
52798;SDS011;38667;42.872;74.622;2023-03-14T07:31:49;39.65;;;21.48;;
52798;SDS011;38667;42.872;74.622;2023-03-14T07:34:17;53.45;;;20.73;;
52798;SDS011;38667;42.872;74.622;2023-03-14T07:36:43;46.80;;;20.77;;
52798;SDS011;38667;42.872;74.622;2023-03-14T07:39:09;43.58;;;20.42;;
52798;SDS011;38667;42.872;74.622;2023-03-14T07:41:36;52.17;;;20.38;;
52798;SDS011;38667;42.872;74.622;2023-03-14T07:44:02;59.75;;;19.75;;
52798;SDS011;38667;42.872;74.622;2023-03-14T07:46:28;45.45;;;19.10;;
52798;SDS011;38667;42.872;74.622;2023-03-14T07:48:55;47.88;;;18.73;;
52798;SDS011;38667;42.872;74.622;2023-03-14T07:51:22;41.17;;;18.90;;
52798;SDS011;38667;42.872;74.622;2023-03-14T07:53:49;41.90;;;18.63;;
52798;SDS011;38667;42.872;74.622;2023-03-14T07:56:15;47.95;;;19.52;;
52798;SDS011;38667;42.872;74.622;2023-03-14T07:58:41;77.93;;;20.95;;
52798;SDS011;38667;42.872;74.622;2023-03-14T08:01:08;45.53;;;20.60;;
52798;SDS011;38667;42.872;74.622;2023-03-14T08:03:34;35.30;;;19.20;;
52798;SDS011;38667;42.872;74.622;2023-03-14T08:06:01;37.85;;;18.55;;
52798;SDS011;38667;42.872;74.622;2023-03-14T08:08:28;45.40;;;20.25;;
52798;SDS011;38667;42.872;74.622;2023-03-14T08:10:55;53.95;;;20.30;;
52798;SDS011;38667;42.872;74.622;2023-03-14T08:13:21;36.33;;;19.30;;
52798;SDS011;38667;42.872;74.622;2023-03-14T08:15:47;46.72;;;20.92;;
52798;SDS011;38667;42.872;74.622;2023-03-14T08:18:14;38.05;;;19.10;;
52798;SDS011;38667;42.872;74.622;2023-03-14T08:20:40;38.30;;;18.90;;
52798;SDS011;38667;42.872;74.622;2023-03-14T08:23:06;31.67;;;18.20;;
52798;SDS011;38667;42.872;74.622;2023-03-14T08:25:34;43.78;;;19.17;;
52798;SDS011;38667;42.872;74.622;2023-03-14T08:28:00;41.22;;;19.73;;
52798;SDS011;38667;42.872;74.622;2023-03-14T08:30:27;31.98;;;19.02;;
52798;SDS011;38667;42.872;74.622;2023-03-14T08:32:53;43.20;;;20.30;;
52798;SDS011;38667;42.872;74.622;2023-03-14T08:35:21;33.88;;;19.42;;
52798;SDS011;38667;42.872;74.622;2023-03-14T08:37:47;33.78;;;17.77;;
52798;SDS011;38667;42.872;74.622;2023-03-14T08:40:13;28.95;;;16.83;;
52798;SDS011;38667;42.872;74.622;2023-03-14T08:42:41;30.55;;;18.20;;
52798;SDS011;38667;42.872;74.622;2023-03-14T08:45:08;31.15;;;18.10;;
52798;SDS011;38667;42.872;74.622;2023-03-14T08:47:36;35.33;;;19.13;;
52798;SDS011;38667;42.872;74.622;2023-03-14T08:50:04;31.33;;;18.70;;
52798;SDS011;38667;42.872;74.622;2023-03-14T08:52:32;37.25;;;18.10;;
52798;SDS011;38667;42.872;74.622;2023-03-14T08:54:58;37.10;;;18.63;;
52798;SDS011;38667;42.872;74.622;2023-03-14T08:57:25;31.20;;;16.80;;
52798;SDS011;38667;42.872;74.622;2023-03-14T08:59:53;37.58;;;17.30;;
52798;SDS011;38667;42.872;74.622;2023-03-14T09:02:19;31.05;;;17.20;;
52798;SDS011;38667;42.872;74.622;2023-03-14T09:04:46;41.88;;;18.00;;
52798;SDS011;38667;42.872;74.622;2023-03-14T09:07:12;35.72;;;18.77;;
52798;SDS011;38667;42.872;74.622;2023-03-14T09:09:38;35.28;;;18.52;;
52798;SDS011;38667;42.872;74.622;2023-03-14T09:12:05;32.60;;;19.25;;
52798;SDS011;38667;42.872;74.622;2023-03-14T09:14:31;43.88;;;19.75;;
52798;SDS011;38667;42.872;74.622;2023-03-14T09:16:59;54.25;;;18.50;;
52798;SDS011;38667;42.872;74.622;2023-03-14T09:19:25;34.63;;;17.95;;
52798;SDS011;38667;42.872;74.622;2023-03-14T09:21:52;41.00;;;18.02;;
52798;SDS011;38667;42.872;74.622;2023-03-14T09:24:19;33.63;;;18.75;;
52798;SDS011;38667;42.872;74.622;2023-03-14T09:26:45;26.35;;;17.60;;
52798;SDS011;38667;42.872;74.622;2023-03-14T09:29:12;32.70;;;19.55;;
52798;SDS011;38667;42.872;74.622;2023-03-14T09:31:38;34.58;;;21.15;;
52798;SDS011;38667;42.872;74.622;2023-03-14T09:34:06;38.95;;;22.38;;
52798;SDS011;38667;42.872;74.622;2023-03-14T09:36:33;34.08;;;21.70;;
52798;SDS011;38667;42.872;74.622;2023-03-14T09:38:59;37.03;;;23.20;;
52798;SDS011;38667;42.872;74.622;2023-03-14T09:41:25;44.58;;;25.85;;
52798;SDS011;38667;42.872;74.622;2023-03-14T09:43:58;44.40;;;24.10;;
52798;SDS011;38667;42.872;74.622;2023-03-14T09:46:29;44.38;;;22.80;;
52798;SDS011;38667;42.872;74.622;2023-03-14T09:48:59;47.55;;;22.67;;
52798;SDS011;38667;42.872;74.622;2023-03-14T09:51:27;36.10;;;22.38;;
52798;SDS011;38667;42.872;74.622;2023-03-14T09:53:54;35.17;;;20.73;;
52798;SDS011;38667;42.872;74.622;2023-03-14T09:56:21;44.55;;;20.73;;
52798;SDS011;38667;42.872;74.622;2023-03-14T09:58:51;39.13;;;21.52;;
52798;SDS011;38667;42.872;74.622;2023-03-14T10:01:22;35.90;;;20.02;;
52798;SDS011;38667;42.872;74.622;2023-03-14T10:03:50;46.60;;;19.73;;
52798;SDS011;38667;42.872;74.622;2023-03-14T10:06:18;36.90;;;18.45;;
52798;SDS011;38667;42.872;74.622;2023-03-14T10:08:53;28.85;;;18.48;;
52798;SDS011;38667;42.872;74.622;2023-03-14T10:11:21;36.35;;;18.23;;
52798;SDS011;38667;42.872;74.622;2023-03-14T10:13:48;31.20;;;17.83;;
52798;SDS011;38667;42.872;74.622;2023-03-14T10:16:28;41.92;;;18.13;;
52798;SDS011;38667;42.872;74.622;2023-03-14T10:18:59;46.78;;;18.95;;
52798;SDS011;38667;42.872;74.622;2023-03-14T10:21:29;32.83;;;18.50;;
52798;SDS011;38667;42.872;74.622;2023-03-14T10:24:08;25.83;;;17.10;;
52798;SDS011;38667;42.872;74.622;2023-03-14T10:26:35;27.45;;;16.70;;
52798;SDS011;38667;42.872;74.622;2023-03-14T10:29:03;36.00;;;18.25;;
52798;SDS011;38667;42.872;74.622;2023-03-14T10:31:45;26.05;;;18.05;;
52798;SDS011;38667;42.872;74.622;2023-03-14T10:34:15;39.95;;;20.55;;
52798;SDS011;38667;42.872;74.622;2023-03-14T10:36:46;35.50;;;19.40;;
52798;SDS011;38667;42.872;74.622;2023-03-14T10:42:15;34.60;;;17.90;;
52798;SDS011;38667;42.872;74.622;2023-03-14T10:44:45;33.03;;;18.25;;
52798;SDS011;38667;42.872;74.622;2023-03-14T10:47:16;38.15;;;18.00;;
52798;SDS011;38667;42.872;74.622;2023-03-14T10:49:44;29.38;;;16.50;;
52798;SDS011;38667;42.872;74.622;2023-03-14T10:52:15;27.88;;;17.17;;
52798;SDS011;38667;42.872;74.622;2023-03-14T10:54:49;28.33;;;16.83;;
52798;SDS011;38667;42.872;74.622;2023-03-14T10:57:22;30.85;;;15.00;;
52798;SDS011;38667;42.872;74.622;2023-03-14T10:59:48;22.90;;;15.13;;
52798;SDS011;38667;42.872;74.622;2023-03-14T11:02:27;21.60;;;12.60;;
52798;SDS011;38667;42.872;74.622;2023-03-14T11:05:13;20.23;;;11.07;;
52798;SDS011;38667;42.872;74.622;2023-03-14T11:07:48;17.48;;;10.27;;
52798;SDS011;38667;42.872;74.622;2023-03-14T11:10:20;16.23;;;10.35;;
52798;SDS011;38667;42.872;74.622;2023-03-14T11:12:56;26.30;;;11.18;;
52798;SDS011;38667;42.872;74.622;2023-03-14T11:15:30;26.80;;;11.55;;
52798;SDS011;38667;42.872;74.622;2023-03-14T11:21:02;16.50;;;9.98;;
52798;SDS011;38667;42.872;74.622;2023-03-14T11:23:36;13.73;;;10.02;;
52798;SDS011;38667;42.872;74.622;2023-03-14T11:26:13;12.48;;;8.93;;
52798;SDS011;38667;42.872;74.622;2023-03-14T11:28:47;15.07;;;9.50;;
52798;SDS011;38667;42.872;74.622;2023-03-14T11:31:16;19.85;;;9.57;;
52798;SDS011;38667;42.872;74.622;2023-03-14T11:33:50;19.55;;;9.18;;
52798;SDS011;38667;42.872;74.622;2023-03-14T11:36:22;22.70;;;9.70;;
52798;SDS011;38667;42.872;74.622;2023-03-14T11:38:54;18.77;;;9.77;;
52798;SDS011;38667;42.872;74.622;2023-03-14T11:41:25;19.65;;;10.00;;
52798;SDS011;38667;42.872;74.622;2023-03-14T11:43:55;14.82;;;9.70;;
52798;SDS011;38667;42.872;74.622;2023-03-14T11:46:23;16.90;;;8.57;;
52798;SDS011;38667;42.872;74.622;2023-03-14T11:48:56;16.15;;;9.70;;
52798;SDS011;38667;42.872;74.622;2023-03-14T11:51:29;18.10;;;8.93;;
52798;SDS011;38667;42.872;74.622;2023-03-14T11:54:00;18.52;;;8.75;;
52798;SDS011;38667;42.872;74.622;2023-03-14T11:56:36;14.25;;;9.20;;
52798;SDS011;38667;42.872;74.622;2023-03-14T11:59:11;16.65;;;9.70;;
52798;SDS011;38667;42.872;74.622;2023-03-14T12:04:44;15.25;;;9.07;;
52798;SDS011;38667;42.872;74.622;2023-03-14T12:07:19;24.92;;;10.07;;
52798;SDS011;38667;42.872;74.622;2023-03-14T12:09:48;19.38;;;11.40;;
52798;SDS011;38667;42.872;74.622;2023-03-14T12:12:18;20.55;;;11.05;;
52798;SDS011;38667;42.872;74.622;2023-03-14T12:14:46;17.45;;;10.57;;
52798;SDS011;38667;42.872;74.622;2023-03-14T12:17:20;28.63;;;11.63;;
52798;SDS011;38667;42.872;74.622;2023-03-14T12:19:47;16.55;;;11.70;;
52798;SDS011;38667;42.872;74.622;2023-03-14T12:22:29;20.20;;;11.95;;
52798;SDS011;38667;42.872;74.622;2023-03-14T12:25:13;18.23;;;11.52;;
52798;SDS011;38667;42.872;74.622;2023-03-14T12:27:48;24.00;;;12.68;;
52798;SDS011;38667;42.872;74.622;2023-03-14T12:30:29;23.70;;;13.75;;
52798;SDS011;38667;42.872;74.622;2023-03-14T12:33:19;24.90;;;12.73;;
52798;SDS011;38667;42.872;74.622;2023-03-14T12:35:53;21.42;;;12.98;;
52798;SDS011;38667;42.872;74.622;2023-03-14T12:38:26;23.40;;;14.13;;
52798;SDS011;38667;42.872;74.622;2023-03-14T12:41:03;23.50;;;12.80;;
52798;SDS011;38667;42.872;74.622;2023-03-14T12:43:38;30.10;;;13.48;;
52798;SDS011;38667;42.872;74.622;2023-03-14T12:46:09;23.60;;;12.63;;
52798;SDS011;38667;42.872;74.622;2023-03-14T12:48:45;19.30;;;11.65;;
52798;SDS011;38667;42.872;74.622;2023-03-14T12:51:14;21.52;;;11.45;;
52798;SDS011;38667;42.872;74.622;2023-03-14T12:56:51;17.50;;;9.93;;
52798;SDS011;38667;42.872;74.622;2023-03-14T12:59:32;21.30;;;11.18;;
52798;SDS011;38667;42.872;74.622;2023-03-14T13:02:01;22.83;;;10.23;;
52798;SDS011;38667;42.872;74.622;2023-03-14T13:04:43;23.98;;;9.77;;
52798;SDS011;38667;42.872;74.622;2023-03-14T13:07:12;16.20;;;9.23;;
52798;SDS011;38667;42.872;74.622;2023-03-14T13:09:53;20.88;;;10.30;;
52798;SDS011;38667;42.872;74.622;2023-03-14T13:12:23;21.13;;;9.50;;
52798;SDS011;38667;42.872;74.622;2023-03-14T13:14:54;16.10;;;9.30;;
52798;SDS011;38667;42.872;74.622;2023-03-14T13:17:24;21.95;;;9.85;;
52798;SDS011;38667;42.872;74.622;2023-03-14T13:19:55;22.48;;;9.82;;
52798;SDS011;38667;42.872;74.622;2023-03-14T13:22:23;20.33;;;8.30;;
52798;SDS011;38667;42.872;74.622;2023-03-14T13:24:58;14.65;;;8.07;;
52798;SDS011;38667;42.872;74.622;2023-03-14T13:27:25;19.42;;;7.68;;
52798;SDS011;38667;42.872;74.622;2023-03-14T13:29:51;15.52;;;7.50;;
52798;SDS011;38667;42.872;74.622;2023-03-14T13:32:20;19.50;;;7.32;;
52798;SDS011;38667;42.872;74.622;2023-03-14T13:34:47;16.42;;;7.03;;
52798;SDS011;38667;42.872;74.622;2023-03-14T13:37:16;20.67;;;7.13;;
52798;SDS011;38667;42.872;74.622;2023-03-14T13:39:49;12.52;;;7.20;;
52798;SDS011;38667;42.872;74.622;2023-03-14T13:42:16;16.80;;;6.90;;
52798;SDS011;38667;42.872;74.622;2023-03-14T13:44:43;11.40;;;7.03;;
52798;SDS011;38667;42.872;74.622;2023-03-14T13:47:12;16.48;;;8.00;;
52798;SDS011;38667;42.872;74.622;2023-03-14T13:49:43;16.95;;;7.47;;
52798;SDS011;38667;42.872;74.622;2023-03-14T13:55:01;20.33;;;8.50;;
52798;SDS011;38667;42.872;74.622;2023-03-14T13:57:28;30.00;;;8.88;;
52798;SDS011;38667;42.872;74.622;2023-03-14T14:00:16;28.05;;;10.50;;
52798;SDS011;38667;42.872;74.622;2023-03-14T14:02:46;25.33;;;11.82;;
52798;SDS011;38667;42.872;74.622;2023-03-14T14:05:13;26.98;;;10.90;;
52798;SDS011;38667;42.872;74.622;2023-03-14T14:07:40;22.85;;;10.35;;
52798;SDS011;38667;42.872;74.622;2023-03-14T14:10:09;24.50;;;10.18;;
52798;SDS011;38667;42.872;74.622;2023-03-14T14:12:38;18.70;;;9.00;;
52798;SDS011;38667;42.872;74.622;2023-03-14T14:15:09;33.80;;;12.40;;
52798;SDS011;38667;42.872;74.622;2023-03-14T14:17:40;43.90;;;23.42;;
52798;SDS011;38667;42.872;74.622;2023-03-14T14:20:13;52.65;;;25.77;;
52798;SDS011;38667;42.872;74.622;2023-03-14T14:22:45;60.75;;;30.92;;
52798;SDS011;38667;42.872;74.622;2023-03-14T14:25:12;64.43;;;25.85;;
52798;SDS011;38667;42.872;74.622;2023-03-14T14:27:41;66.55;;;18.75;;
52798;SDS011;38667;42.872;74.622;2023-03-14T14:30:24;64.05;;;19.58;;
52798;SDS011;38667;42.872;74.622;2023-03-14T14:33:09;51.95;;;14.50;;